Westree, Canada
Current Conditions -  °F | °C
As of 2:00 AM on Monday 22 Dec 2014 (Local Time) from CYSB Reporting Station
Overcast Overcast  
Wind Chill: 15°   Ceiling: 3500
Heat Index: 25°   Visibility: 15mi
Dew Point: 23°   Wind: 10mph
Humidity: 93%   Direction: 160°SSE
Pressure: 30.19"   Gusts: NA
Location:  47.42°N, 81.53°W
Report Text: CYSB 220700Z 16009KT 15SM OVC035 M04/M05 A3019 RMK SC8 SLP244
Loading
Personal Weather Stations






























Interactive Weather Map New forecast layout! Learn more

10-Day Weather Forecast

Advertisements
Track Severe Weather on mobile